createdAt,value
2017-09-22T11:26:14.074Z,25.96
2017-09-22T11:26:27.101Z,25.94
2017-09-22T11:26:39.746Z,25.88
2017-09-22T11:26:53.300Z,25.84
2017-09-22T11:27:06.307Z,25.78
2017-09-22T11:27:18.688Z,25.78
2017-09-22T11:27:32.223Z,25.78
2017-09-22T11:27:45.160Z,25.74
2017-09-22T11:27:58.714Z,25.69
2017-09-22T11:28:11.794Z,25.62
2017-09-22T11:28:24.816Z,25.48
2017-09-22T11:28:37.797Z,25.47
2017-09-22T11:28:50.233Z,25.33
2017-09-22T11:29:02.757Z,25.38
2017-09-22T11:29:15.165Z,25.42
2017-09-22T11:29:28.659Z,25.32
2017-09-22T11:29:42.235Z,25.27
2017-09-22T11:29:55.862Z,25.27
2017-09-22T11:30:09.020Z,25.37
2017-09-22T11:30:21.500Z,25.17
2017-09-22T11:30:34.440Z,25.26
2017-09-22T11:30:47.407Z,25.3
2017-09-22T11:30:59.843Z,25.17
2017-09-22T11:31:12.367Z,25.15
2017-09-22T11:31:25.228Z,25.2
2017-09-22T11:31:38.731Z,25.12
2017-09-22T11:31:51.737Z,25.15
2017-09-22T11:32:04.131Z,25.17
2017-09-22T11:32:17.087Z,25.09
2017-09-22T11:32:29.535Z,25.05
2017-09-22T11:32:43.082Z,25.07
2017-09-22T11:32:55.536Z,25.01
2017-09-22T11:33:08.595Z,24.96
2017-09-22T11:33:21.023Z,24.92
2017-09-22T11:33:33.973Z,24.94
2017-09-22T11:33:47.459Z,24.87
2017-09-22T11:33:59.882Z,24.83
2017-09-22T11:34:11.816Z,24.77
2017-09-22T11:34:25.355Z,24.75
2017-09-22T11:34:37.774Z,24.71
2017-09-22T11:34:51.311Z,24.69
2017-09-22T11:35:04.812Z,24.69
2017-09-22T11:35:17.831Z,24.74
2017-09-22T11:35:30.772Z,24.83
2017-09-22T11:35:44.285Z,24.74
2017-09-22T11:35:56.774Z,24.74
2017-09-22T11:36:09.753Z,24.78
2017-09-22T11:36:23.576Z,24.67
2017-09-22T11:36:37.088Z,24.77
2017-09-22T11:36:50.098Z,24.7
2017-09-22T11:37:03.667Z,24.74
2017-09-22T11:37:17.235Z,24.74
2017-09-22T11:37:30.699Z,24.85
2017-09-22T11:37:44.227Z,24.74
2017-09-22T11:37:57.228Z,24.74
2017-09-22T11:38:10.751Z,24.74
2017-09-22T11:38:23.787Z,24.71
2017-09-22T11:38:36.792Z,24.74
2017-09-22T11:38:50.331Z,24.71
2017-09-22T11:39:03.844Z,24.78
2017-09-22T11:39:17.321Z,24.71
2017-09-22T11:39:30.305Z,24.66
2017-09-22T11:39:43.853Z,24.7
2017-09-22T11:39:56.807Z,24.56
2017-09-22T11:40:10.353Z,24.63
2017-09-22T11:40:23.307Z,24.71
2017-09-22T11:40:36.834Z,24.66
2017-09-22T11:40:50.347Z,24.75
2017-09-22T11:41:03.369Z,24.71
2017-09-22T11:41:16.285Z,24.69
2017-09-22T11:41:29.296Z,24.8
2017-09-22T11:41:42.270Z,24.75
2017-09-22T11:41:55.786Z,24.66
2017-09-22T11:42:08.264Z,24.7
2017-09-22T11:42:21.287Z,24.7
2017-09-22T11:42:34.234Z,24.7
2017-09-22T11:42:47.208Z,24.7
2017-09-22T11:43:00.230Z,24.71
2017-09-22T11:43:13.750Z,24.75
2017-09-22T11:43:27.285Z,24.75
2017-09-22T11:43:40.247Z,24.82
2017-09-22T11:43:53.245Z,24.86
2017-09-22T11:44:06.214Z,24.8
2017-09-22T11:44:18.670Z,24.85
2017-09-22T11:44:31.695Z,24.8
2017-09-22T11:44:43.563Z,24.87
2017-09-22T11:44:56.561Z,24.8
2017-09-22T11:45:07.961Z,24.82
2017-09-22T11:45:20.916Z,24.83
2017-09-22T11:45:33.962Z,24.87
2017-09-22T11:45:47.553Z,24.83
2017-09-22T11:46:00.510Z,24.86
2017-09-22T11:46:13.942Z,24.83
2017-09-22T11:46:26.869Z,24.83
2017-09-22T11:46:40.429Z,24.77
2017-09-22T11:46:53.456Z,24.82
2017-09-22T11:47:06.991Z,24.86
2017-09-22T11:47:19.977Z,24.86
2017-09-22T11:47:33.497Z,24.83
2017-09-22T11:47:46.185Z,24.85
2017-09-22T11:47:59.153Z,24.83
2017-09-22T11:48:11.632Z,24.86
2017-09-22T11:48:24.528Z,24.96
2017-09-22T11:48:38.058Z,24.96
2017-09-22T11:48:51.528Z,24.82
2017-09-22T11:49:05.049Z,24.83
2017-09-22T11:49:18.250Z,24.86
2017-09-22T11:49:31.276Z,24.83
2017-09-22T11:49:44.187Z,24.8
2017-09-22T11:49:57.685Z,24.83
2017-09-22T11:50:10.200Z,24.83
2017-09-22T11:50:23.679Z,24.86
2017-09-22T11:50:37.175Z,24.78
2017-09-22T11:50:50.128Z,25.01
2017-09-22T11:51:03.629Z,24.96
2017-09-22T11:51:15.796Z,24.97
2017-09-22T11:51:29.351Z,24.94
2017-09-22T11:51:42.306Z,24.89
2017-09-22T11:51:55.284Z,24.92
2017-09-22T11:52:08.842Z,24.97
2017-09-22T11:52:21.749Z,25.01
2017-09-22T11:52:34.697Z,25.08
2017-09-22T11:52:48.346Z,25.05
2017-09-22T11:53:01.864Z,25.02
2017-09-22T11:53:14.826Z,25.05
2017-09-22T11:53:28.301Z,25.05
2017-09-22T11:53:41.843Z,25.04
2017-09-22T11:53:55.292Z,25.05
2017-09-22T11:54:08.278Z,25.05
2017-09-22T11:54:21.812Z,25.02
2017-09-22T11:54:34.773Z,25.05
2017-09-22T11:54:48.272Z,25.07
2017-09-22T11:55:01.308Z,25.07
2017-09-22T11:55:14.286Z,25.05
2017-09-22T11:55:27.803Z,25
2017-09-22T11:55:40.826Z,25.11
2017-09-22T11:55:53.855Z,25.07
2017-09-22T11:56:07.335Z,25.09
2017-09-22T11:56:20.294Z,25.08
2017-09-22T11:56:33.822Z,25.08
2017-09-22T11:56:47.426Z,25.12
2017-09-22T11:56:59.928Z,25.11
2017-09-22T11:57:12.923Z,25.04
2017-09-22T11:57:26.494Z,25.04
2017-09-22T11:57:40.076Z,25.11
2017-09-22T11:57:52.560Z,25.11
2017-09-22T11:58:05.032Z,25.02
2017-09-22T11:58:17.492Z,25.07
2017-09-22T11:58:29.965Z,25.05
2017-09-22T11:58:43.404Z,25.04
2017-09-22T11:58:56.507Z,25.04
2017-09-22T11:59:09.998Z,25.08
2017-09-22T11:59:23.038Z,25.04
2017-09-22T11:59:36.532Z,25.02
2017-09-22T11:59:49.503Z,25.04
2017-09-22T12:00:02.571Z,24.97
2017-09-22T12:00:15.533Z,24.92
2017-09-22T12:00:29.057Z,24.92
2017-09-22T12:00:41.529Z,24.9
2017-09-22T12:00:54.478Z,24.92
2017-09-22T12:01:06.447Z,24.83
2017-09-22T12:01:20.193Z,24.83
2017-09-22T12:01:33.689Z,24.86
2017-09-22T12:01:47.198Z,24.8
2017-09-22T12:02:00.741Z,24.89
2017-09-22T12:02:14.246Z,24.83
2017-09-22T12:02:26.671Z,24.8
2017-09-22T12:02:39.643Z,24.8
2017-09-22T12:02:53.186Z,24.8
2017-09-22T12:03:06.160Z,24.86
2017-09-22T12:03:19.139Z,24.82
2017-09-22T12:03:31.581Z,24.87
2017-09-22T12:03:44.604Z,24.86
2017-09-22T12:03:58.088Z,24.78
2017-09-22T12:04:11.096Z,24.85
2017-09-22T12:04:24.672Z,24.87
2017-09-22T12:04:38.221Z,24.9
2017-09-22T12:04:51.720Z,24.93
2017-09-22T12:05:03.586Z,24.9
2017-09-22T12:05:16.112Z,24.83
2017-09-22T12:05:29.078Z,24.96
2017-09-22T12:05:42.711Z,24.92
2017-09-22T12:05:55.745Z,24.97
2017-09-22T12:06:08.792Z,24.94
2017-09-22T12:06:22.429Z,24.97
2017-09-22T12:06:35.994Z,24.93
2017-09-22T12:06:49.022Z,24.93
2017-09-22T12:07:01.929Z,24.94
2017-09-22T12:07:13.871Z,24.92
2017-09-22T12:07:27.342Z,24.9
2017-09-22T12:07:40.347Z,24.94
2017-09-22T12:07:52.800Z,24.94
2017-09-22T12:08:06.275Z,25.01
2017-09-22T12:08:18.684Z,25.05
2017-09-22T12:08:31.688Z,25.02
2017-09-22T12:08:45.166Z,25.07
2017-09-22T12:08:58.618Z,25.04
2017-09-22T12:09:11.595Z,25.04
2017-09-22T12:09:25.157Z,25.11
2017-09-22T12:09:38.690Z,25.07
2017-09-22T12:09:51.695Z,25.09
2017-09-22T12:10:04.664Z,25.07
2017-09-22T12:10:17.121Z,25.09
2017-09-22T12:10:30.036Z,25.05
2017-09-22T12:10:43.624Z,25.07
2017-09-22T12:10:56.669Z,25.12
2017-09-22T12:11:09.654Z,25.14
2017-09-22T12:11:23.202Z,25.14
2017-09-22T12:11:35.854Z,25.19
2017-09-22T12:11:48.293Z,25.15
2017-09-22T12:12:01.250Z,25.09
2017-09-22T12:12:14.836Z,25.19
2017-09-22T12:12:27.818Z,25.15
2017-09-22T12:12:40.802Z,25.15
2017-09-22T12:12:53.802Z,25.2
2017-09-22T12:13:07.350Z,25.2
2017-09-22T12:13:20.947Z,25.17
2017-09-22T12:13:33.962Z,25.3
2017-09-22T12:13:46.415Z,25.38
2017-09-22T12:13:59.992Z,25.29
2017-09-22T12:14:12.920Z,25.3
2017-09-22T12:14:25.925Z,25.3
2017-09-22T12:14:38.853Z,25.34
2017-09-22T12:14:51.863Z,25.32
2017-09-22T12:15:04.334Z,25.32
2017-09-22T12:15:17.420Z,25.3
2017-09-22T12:15:30.945Z,25.29
2017-09-22T12:15:44.495Z,25.37
2017-09-22T12:15:58.318Z,25.32
2017-09-22T12:16:11.276Z,25.3
2017-09-22T12:16:24.859Z,25.34
2017-09-22T12:16:37.885Z,25.37
2017-09-22T12:16:51.444Z,25.41
2017-09-22T12:17:04.900Z,25.45
2017-09-22T12:17:18.421Z,25.34
2017-09-22T12:17:31.332Z,25.41
2017-09-22T12:17:43.764Z,25.44
2017-09-22T12:17:56.737Z,25.33
2017-09-22T12:18:10.253Z,25.34
2017-09-22T12:18:22.158Z,25.42
2017-09-22T12:18:35.108Z,25.48
2017-09-22T12:18:48.619Z,25.48
2017-09-22T12:19:01.030Z,25.45
2017-09-22T12:19:14.499Z,25.49
2017-09-22T12:19:27.588Z,25.45
2017-09-22T12:19:40.622Z,25.52
2017-09-22T12:19:54.121Z,25.51
2017-09-22T12:20:07.616Z,25.51
2017-09-22T12:20:19.571Z,25.45
2017-09-22T12:20:32.604Z,25.49
2017-09-22T12:20:45.077Z,25.48
2017-09-22T12:20:58.646Z,25.49
2017-09-22T12:21:11.607Z,25.49
2017-09-22T12:21:24.667Z,25.49
2017-09-22T12:21:37.933Z,25.52
2017-09-22T12:21:50.970Z,25.51
2017-09-22T12:22:04.404Z,25.48
2017-09-22T12:22:17.383Z,25.47
2017-09-22T12:22:29.846Z,25.44
2017-09-22T12:22:42.287Z,25.49
2017-09-22T12:22:55.790Z,25.52
2017-09-22T12:23:09.348Z,25.45
2017-09-22T12:23:21.302Z,25.51
2017-09-22T12:23:34.803Z,25.47
2017-09-22T12:23:47.834Z,25.48
2017-09-22T12:24:00.306Z,25.52
2017-09-22T12:24:13.841Z,25.48
2017-09-22T12:24:27.284Z,25.6
2017-09-22T12:24:40.821Z,25.54
2017-09-22T12:24:54.348Z,25.56
2017-09-22T12:25:06.818Z,25.54
2017-09-22T12:25:20.365Z,25.56
2017-09-22T12:25:33.910Z,25.56
2017-09-22T12:25:46.341Z,25.56
2017-09-22T12:25:59.314Z,25.59
2017-09-22T12:26:12.237Z,25.56
2017-09-22T12:26:25.722Z,25.59
2017-09-22T12:26:39.306Z,25.47
2017-09-22T12:26:51.681Z,25.52
2017-09-22T12:27:03.625Z,25.56
2017-09-22T12:27:15.539Z,25.59
2017-09-22T12:27:27.502Z,25.63
2017-09-22T12:27:40.468Z,25.59
2017-09-22T12:27:53.950Z,25.69
2017-09-22T12:28:07.540Z,25.64
2017-09-22T12:28:21.069Z,25.64
2017-09-22T12:28:34.638Z,25.64
2017-09-22T12:28:47.315Z,25.6
2017-09-22T12:29:00.841Z,25.62
2017-09-22T12:29:14.322Z,25.67
2017-09-22T12:29:26.751Z,25.66
2017-09-22T12:29:38.113Z,25.66
2017-09-22T12:29:51.643Z,25.69
2017-09-22T12:30:04.150Z,25.74
2017-09-22T12:30:17.649Z,25.69
2017-09-22T12:30:31.205Z,25.7
2017-09-22T12:30:43.644Z,25.75
2017-09-22T12:30:57.192Z,25.69
2017-09-22T12:31:10.151Z,25.76
2017-09-22T12:31:23.084Z,25.7
2017-09-22T12:31:36.257Z,25.66
2017-09-22T12:31:49.276Z,25.7
2017-09-22T12:32:02.874Z,25.7
2017-09-22T12:32:15.297Z,25.69
2017-09-22T12:32:28.291Z,25.75
2017-09-22T12:32:41.287Z,25.64
2017-09-22T12:32:54.865Z,25.78
2017-09-22T12:33:07.880Z,25.75
2017-09-22T12:33:20.288Z,25.75
2017-09-22T12:33:33.272Z,25.88
2017-09-22T12:33:46.850Z,25.89
2017-09-22T12:34:00.371Z,25.82
2017-09-22T12:34:13.346Z,25.91
2017-09-22T12:34:26.373Z,25.94
2017-09-22T12:34:39.404Z,25.93
2017-09-22T12:34:51.798Z,25.79
2017-09-22T12:35:04.302Z,25.89
2017-09-22T12:35:17.287Z,25.89
2017-09-22T12:35:30.900Z,25.88
2017-09-22T12:35:44.346Z,25.93
2017-09-22T12:35:57.317Z,25.93
2017-09-22T12:36:10.817Z,25.99
2017-09-22T12:36:24.333Z,25.96
2017-09-22T12:36:38.392Z,25.97
2017-09-22T12:36:51.898Z,25.94
2017-09-22T12:37:04.882Z,25.97
2017-09-22T12:37:17.881Z,26
2017-09-22T12:37:30.268Z,25.99
2017-09-22T12:37:43.850Z,26.01
2017-09-22T12:37:57.293Z,26.01
2017-09-22T12:38:10.274Z,26.01
2017-09-22T12:38:23.815Z,26
2017-09-22T12:38:37.425Z,25.89
2017-09-22T12:38:50.394Z,25.99
2017-09-22T12:39:03.866Z,25.99
2017-09-22T12:39:17.410Z,25.96
2017-09-22T12:39:29.831Z,26.03
2017-09-22T12:39:41.790Z,26.16
2017-09-22T12:39:54.741Z,26.11
2017-09-22T12:40:08.318Z,26.09
2017-09-22T12:40:21.848Z,26.12
2017-09-22T12:40:33.682Z,26.17
2017-09-22T12:40:46.181Z,26.19
2017-09-22T12:40:59.144Z,26.17
2017-09-22T12:41:11.630Z,26.17
2017-09-22T12:41:24.061Z,26.22
2017-09-22T12:41:37.561Z,26.17
2017-09-22T12:41:51.078Z,26.2
2017-09-22T12:42:04.073Z,26.27
2017-09-22T12:42:16.532Z,26.22
2017-09-22T12:42:30.076Z,26.3
2017-09-22T12:42:43.100Z,26.31
2017-09-22T12:42:56.056Z,26.38
2017-09-22T12:43:09.015Z,26.34
2017-09-22T12:43:22.558Z,26.37
2017-09-22T12:43:35.551Z,26.45
2017-09-22T12:43:48.544Z,26.38
2017-09-22T12:44:02.100Z,26.35
2017-09-22T12:44:15.138Z,26.42
2017-09-22T12:44:28.098Z,26.44
2017-09-22T12:44:41.180Z,26.39
2017-09-22T12:44:54.694Z,26.3
2017-09-22T12:45:06.638Z,26.35
2017-09-22T12:45:19.635Z,26.3
2017-09-22T12:45:32.065Z,26.3
2017-09-22T12:45:44.585Z,26.31
2017-09-22T12:45:57.564Z,26.31
2017-09-22T12:46:10.025Z,26.31
2017-09-22T12:46:22.989Z,26.31
2017-09-22T12:46:36.522Z,26.35
2017-09-22T12:46:50.061Z,26.2
2017-09-22T12:47:03.005Z,26.26
2017-09-22T12:47:16.049Z,26.31
2017-09-22T12:47:29.051Z,26.31
2017-09-22T12:47:41.006Z,26.3
2017-09-22T12:47:54.001Z,26.16
2017-09-22T12:48:07.496Z,26.23
2017-09-22T12:48:20.996Z,26.26
2017-09-22T12:48:33.955Z,26.15
2017-09-22T12:48:47.454Z,26.27
2017-09-22T12:49:00.958Z,26.3
2017-09-22T12:49:14.502Z,26.27
2017-09-22T12:49:27.464Z,26.22
2017-09-22T12:49:40.421Z,26.26
2017-09-22T12:49:53.956Z,26.27
2017-09-22T12:50:06.943Z,26.16
2017-09-22T12:50:18.846Z,26.26
2017-09-22T12:50:31.294Z,26.31
2017-09-22T12:50:44.284Z,26.31
2017-09-22T12:50:57.220Z,26.3
2017-09-22T12:51:10.257Z,26.35
2017-09-22T12:51:23.772Z,26.3
2017-09-22T12:51:37.325Z,26.35
2017-09-22T12:51:50.273Z,26.32
2017-09-22T12:52:03.793Z,26.32
2017-09-22T12:52:16.736Z,26.32
2017-09-22T12:52:29.735Z,26.39
2017-09-22T12:52:43.262Z,26.38
2017-09-22T12:52:56.780Z,26.42
2017-09-22T12:53:08.640Z,26.42
2017-09-22T12:53:21.084Z,26.41
2017-09-22T12:53:33.510Z,26.39
2017-09-22T12:53:46.498Z,26.38
2017-09-22T12:53:59.978Z,26.41
2017-09-22T12:54:12.952Z,26.44
2017-09-22T12:54:25.960Z,26.42
2017-09-22T12:54:39.522Z,26.5
2017-09-22T12:54:53.003Z,26.44
2017-09-22T12:55:06.576Z,26.53
2017-09-22T12:55:19.555Z,26.5
2017-09-22T12:55:33.066Z,26.44
2017-09-22T12:55:46.062Z,26.45
2017-09-22T12:55:59.600Z,26.5
2017-09-22T12:56:13.172Z,26.54
2017-09-22T12:56:26.078Z,26.56
2017-09-22T12:56:39.124Z,26.59
2017-09-22T12:56:52.042Z,26.6
2017-09-22T12:57:05.022Z,26.49
2017-09-22T12:57:18.063Z,26.49
2017-09-22T12:57:31.583Z,26.52
2017-09-22T12:57:44.513Z,26.49
2017-09-22T12:57:57.473Z,26.5
2017-09-22T12:58:11.029Z,26.53
2017-09-22T12:58:24.050Z,26.56
2017-09-22T12:58:37.026Z,26.5
2017-09-22T12:58:49.506Z,26.49
2017-09-22T12:59:02.441Z,26.61
2017-09-22T12:59:15.442Z,26.54
2017-09-22T12:59:30.382Z,26.63
2017-09-22T12:59:42.814Z,26.6
2017-09-22T12:59:55.861Z,26.56
2017-09-22T13:00:08.827Z,26.57
2017-09-22T13:00:22.336Z,26.53
2017-09-22T13:00:35.328Z,26.59
2017-09-22T13:00:47.760Z,26.56
2017-09-22T13:00:59.667Z,26.68
2017-09-22T13:01:12.704Z,26.64
2017-09-22T13:01:26.251Z,26.63
2017-09-22T13:01:39.761Z,26.64
2017-09-22T13:01:53.290Z,26.76
2017-09-22T13:02:06.215Z,26.74
2017-09-22T13:02:19.138Z,26.74
2017-09-22T13:02:32.193Z,26.63
2017-09-22T13:02:44.684Z,26.81
2017-09-22T13:02:57.645Z,26.74
2017-09-22T13:03:10.107Z,26.76
2017-09-22T13:03:23.653Z,26.74
2017-09-22T13:03:37.169Z,26.84
2017-09-22T13:03:50.714Z,26.74
2017-09-22T13:04:03.758Z,26.84
2017-09-22T13:04:17.291Z,26.79
2017-09-22T13:04:30.761Z,26.75
2017-09-22T13:04:43.731Z,26.78
2017-09-22T13:04:56.672Z,26.79
2017-09-22T13:05:08.580Z,26.79
2017-09-22T13:05:21.586Z,26.81
2017-09-22T13:05:35.049Z,26.79
2017-09-22T13:05:46.405Z,26.78
2017-09-22T13:05:59.409Z,26.79
2017-09-22T13:06:11.312Z,26.82
2017-09-22T13:06:24.871Z,26.81
2017-09-22T13:06:37.329Z,26.76
2017-09-22T13:06:50.636Z,26.84
2017-09-22T13:07:04.174Z,26.76
2017-09-22T13:07:17.631Z,26.79
2017-09-22T13:07:30.104Z,26.79
2017-09-22T13:07:43.118Z,26.75
2017-09-22T13:07:56.080Z,26.78
2017-09-22T13:08:09.116Z,26.81
2017-09-22T13:08:22.594Z,26.82
2017-09-22T13:08:36.072Z,26.81
2017-09-22T13:08:48.520Z,26.74
2017-09-22T13:09:01.518Z,26.79
2017-09-22T13:09:13.971Z,26.81
2017-09-22T13:09:27.522Z,26.87
2017-09-22T13:09:40.457Z,26.82
2017-09-22T13:09:52.927Z,26.86
2017-09-22T13:10:05.893Z,26.86
2017-09-22T13:10:19.410Z,26.86
2017-09-22T13:10:32.996Z,26.81
2017-09-22T13:10:46.544Z,26.81
2017-09-22T13:11:00.013Z,26.81
2017-09-22T13:11:13.038Z,26.87
2017-09-22T13:11:25.514Z,26.89
2017-09-22T13:11:38.067Z,26.87
2017-09-22T13:11:50.582Z,26.93
2017-09-22T13:12:03.046Z,26.9
2017-09-22T13:12:15.487Z,26.94
2017-09-22T13:12:29.007Z,26.93
2017-09-22T13:12:42.043Z,26.96
2017-09-22T13:12:54.898Z,26.9
2017-09-22T13:13:07.350Z,26.89
2017-09-22T13:13:20.292Z,26.93
2017-09-22T13:13:33.786Z,26.96
2017-09-22T13:13:46.832Z,26.89
2017-09-22T13:14:00.391Z,26.97
2017-09-22T13:14:13.911Z,26.94
2017-09-22T13:14:26.877Z,26.86
2017-09-22T13:14:39.888Z,26.99
2017-09-22T13:14:53.426Z,26.87
2017-09-22T13:15:06.572Z,27.06
2017-09-22T13:15:19.001Z,26.96
2017-09-22T13:15:32.555Z,26.96
2017-09-22T13:15:45.578Z,27.01
2017-09-22T13:15:59.794Z,27.05
2017-09-22T13:16:12.205Z,27.01
2017-09-22T13:16:24.644Z,27.05
2017-09-22T13:16:38.156Z,27.04
2017-09-22T13:16:51.160Z,26.97
2017-09-22T13:17:03.566Z,26.99
2017-09-22T13:17:16.500Z,27
2017-09-22T13:17:30.030Z,27.04
2017-09-22T13:17:43.543Z,27
2017-09-22T13:17:56.575Z,27.12
2017-09-22T13:18:08.966Z,27.05
2017-09-22T13:18:21.374Z,27.06
2017-09-22T13:18:33.795Z,27.09
2017-09-22T13:18:46.303Z,27.06
2017-09-22T13:18:59.377Z,27.16
2017-09-22T13:19:11.815Z,27.04
2017-09-22T13:19:25.377Z,27.05
2017-09-22T13:19:38.898Z,27.13
2017-09-22T13:19:51.361Z,27.11
2017-09-22T13:20:04.837Z,27.16
2017-09-22T13:20:17.322Z,27.18
2017-09-22T13:20:29.770Z,27.13
2017-09-22T13:20:42.226Z,27.06
2017-09-22T13:20:55.239Z,27.15
2017-09-22T13:21:08.198Z,27.05
2017-09-22T13:21:21.181Z,27.05
2017-09-22T13:21:34.674Z,27.23
2017-09-22T13:21:47.845Z,27.15
2017-09-22T13:22:00.864Z,27.15
2017-09-22T13:22:13.355Z,27.21
2017-09-22T13:22:26.905Z,27.18
2017-09-22T13:22:40.426Z,27.21
2017-09-22T13:22:53.510Z,27.21
2017-09-22T13:23:05.435Z,27.24
2017-09-22T13:23:18.373Z,27.16
2017-09-22T13:23:31.432Z,27.28
2017-09-22T13:23:44.411Z,27.27
2017-09-22T13:23:56.925Z,27.34
2017-09-22T13:24:10.369Z,27.31
2017-09-22T13:24:22.832Z,27.33
2017-09-22T13:24:35.756Z,27.46
2017-09-22T13:24:48.131Z,27.37
2017-09-22T13:25:00.616Z,27.46
2017-09-22T13:25:14.110Z,27.43
2017-09-22T13:25:27.595Z,27.46
2017-09-22T13:25:41.129Z,27.49
2017-09-22T13:25:54.614Z,27.53
2017-09-22T13:26:08.086Z,27.48
2017-09-22T13:26:21.001Z,27.49
2017-09-22T13:26:34.034Z,27.48
2017-09-22T13:26:47.547Z,27.52
2017-09-22T13:27:00.197Z,27.53
2017-09-22T13:27:13.171Z,27.51
2017-09-22T13:27:25.577Z,27.49
2017-09-22T13:27:38.621Z,27.48
2017-09-22T13:27:51.584Z,27.53
2017-09-22T13:28:04.646Z,27.49
2017-09-22T13:28:17.100Z,27.52
2017-09-22T13:28:30.625Z,27.48
2017-09-22T13:28:43.037Z,27.52
2017-09-22T13:28:55.511Z,27.57
2017-09-22T13:29:08.036Z,27.53
2017-09-22T13:29:20.440Z,27.52
2017-09-22T13:29:33.368Z,27.55
2017-09-22T13:29:46.418Z,27.59
2017-09-22T13:29:58.271Z,27.57
2017-09-22T13:30:10.716Z,27.53
2017-09-22T13:30:24.267Z,27.68
2017-09-22T13:30:36.730Z,27.64
2017-09-22T13:30:50.230Z,27.62
2017-09-22T13:31:02.133Z,27.64
2017-09-22T13:31:15.151Z,27.65
2017-09-22T13:31:27.569Z,27.66
2017-09-22T13:31:40.632Z,27.66
2017-09-22T13:31:53.655Z,27.69
2017-09-22T13:32:07.165Z,27.74
2017-09-22T13:32:20.217Z,27.62
2017-09-22T13:32:33.263Z,27.72
2017-09-22T13:32:45.659Z,27.69
2017-09-22T13:32:59.180Z,27.65
2017-09-22T13:33:11.615Z,27.66
2017-09-22T13:33:24.600Z,27.71
2017-09-22T13:33:38.327Z,27.65
2017-09-22T13:33:50.968Z,27.64
2017-09-22T13:34:03.941Z,27.68
2017-09-22T13:34:17.436Z,27.66
2017-09-22T13:34:30.996Z,27.72
2017-09-22T13:34:44.528Z,27.71
2017-09-22T13:34:58.009Z,27.66
2017-09-22T13:35:10.964Z,27.66
2017-09-22T13:35:24.000Z,27.64
2017-09-22T13:35:36.999Z,27.66
2017-09-22T13:35:49.981Z,27.65
2017-09-22T13:36:02.428Z,27.69
2017-09-22T13:36:15.393Z,27.74
2017-09-22T13:36:27.895Z,27.74
2017-09-22T13:36:40.313Z,27.75
2017-09-22T13:36:52.938Z,27.75
2017-09-22T13:37:06.762Z,27.75
2017-09-22T13:37:20.451Z,27.81
2017-09-22T13:37:33.528Z,27.76
2017-09-22T13:37:46.465Z,27.9
2017-09-22T13:38:00.033Z,27.83
2017-09-22T13:38:12.445Z,27.83
2017-09-22T13:38:24.364Z,27.84
2017-09-22T13:38:36.866Z,27.84
2017-09-22T13:38:49.895Z,27.86
2017-09-22T13:39:02.925Z,27.84
2017-09-22T13:39:15.910Z,27.84
2017-09-22T13:39:28.925Z,27.96
2017-09-22T13:39:42.419Z,27.9
2017-09-22T13:39:55.355Z,27.93
2017-09-22T13:40:08.338Z,27.91
2017-09-22T13:40:22.066Z,27.9
2017-09-22T13:40:35.293Z,27.89
2017-09-22T13:40:47.757Z,27.96
2017-09-22T13:41:00.785Z,27.96
2017-09-22T13:41:13.186Z,27.99
2017-09-22T13:41:25.608Z,28.01
2017-09-22T13:41:38.089Z,27.99
2017-09-22T13:41:50.519Z,28.03
2017-09-22T13:42:02.447Z,27.96
2017-09-22T13:42:14.864Z,28.03
2017-09-22T13:42:28.438Z,28.01
2017-09-22T13:42:41.497Z,27.99
2017-09-22T13:42:53.439Z,27.98
2017-09-22T13:43:05.329Z,28.02
2017-09-22T13:43:18.271Z,27.98
2017-09-22T13:43:31.276Z,27.99
2017-09-22T13:43:43.136Z,27.98
2017-09-22T13:43:56.082Z,28.09
2017-09-22T13:44:08.547Z,28.02
2017-09-22T13:44:21.516Z,27.99
2017-09-22T13:44:33.990Z,28.05
2017-09-22T13:44:47.422Z,28.02
2017-09-22T13:45:00.449Z,28.02
2017-09-22T13:45:14.000Z,28.08
2017-09-22T13:45:26.475Z,28.08
2017-09-22T13:45:39.481Z,28.08
2017-09-22T13:45:51.943Z,27.96
2017-09-22T13:46:04.944Z,27.96
2017-09-22T13:46:18.523Z,27.94
2017-09-22T13:46:31.530Z,27.87
2017-09-22T13:46:45.062Z,27.91
2017-09-22T13:46:57.417Z,27.91
2017-09-22T13:47:10.958Z,27.9
2017-09-22T13:47:23.989Z,27.89
2017-09-22T13:47:37.548Z,27.87
2017-09-22T13:47:50.529Z,27.86
2017-09-22T13:48:03.461Z,27.94
2017-09-22T13:48:16.489Z,27.89
2017-09-22T13:48:29.492Z,27.86
2017-09-22T13:48:42.434Z,27.9
2017-09-22T13:48:55.945Z,27.94
2017-09-22T13:49:08.399Z,27.93
2017-09-22T13:49:21.335Z,27.89
2017-09-22T13:49:32.706Z,27.91
2017-09-22T13:49:45.768Z,27.96
2017-09-22T13:49:58.802Z,27.91
2017-09-22T13:50:11.845Z,28.02
2017-09-22T13:50:24.914Z,27.98
2017-09-22T13:50:36.845Z,28.01
2017-09-22T13:50:50.353Z,28.01
2017-09-22T13:51:03.897Z,28.01
2017-09-22T13:51:17.403Z,28.01
2017-09-22T13:51:30.424Z,27.99
2017-09-22T13:51:43.970Z,27.98
2017-09-22T13:51:56.976Z,28.05
2017-09-22T13:52:10.674Z,28.03
2017-09-22T13:52:24.117Z,28.09
2017-09-22T13:52:37.151Z,28.08
2017-09-22T13:52:50.118Z,28.01
2017-09-22T13:53:03.062Z,28.11
2017-09-22T13:53:16.580Z,28.03
2017-09-22T13:53:29.565Z,28.14
2017-09-22T13:53:43.081Z,28.08
2017-09-22T13:53:56.618Z,28.03
2017-09-22T13:54:10.243Z,28.12
2017-09-22T13:54:23.862Z,28.12
2017-09-22T13:54:37.440Z,28.02
2017-09-22T13:54:50.429Z,28.08
2017-09-22T13:55:03.438Z,28.06
2017-09-22T13:55:15.454Z,28.05
2017-09-22T13:55:28.861Z,28.02
2017-09-22T13:55:42.380Z,28.03
2017-09-22T13:55:56.134Z,28.09
2017-09-22T13:56:08.072Z,28.14
2017-09-22T13:56:21.066Z,28.09
2017-09-22T13:56:34.561Z,28.17
2017-09-22T13:56:48.082Z,28.2
2017-09-22T13:57:01.329Z,28.2
2017-09-22T13:57:14.300Z,28.2
2017-09-22T13:57:27.856Z,28.21
2017-09-22T13:57:41.409Z,28.23
2017-09-22T13:57:53.820Z,28.17
2017-09-22T13:58:06.820Z,28.18
2017-09-22T13:58:19.701Z,28.23
2017-09-22T13:58:32.720Z,28.27
2017-09-22T13:58:46.178Z,28.27
2017-09-22T13:58:59.727Z,28.26
2017-09-22T13:59:13.211Z,28.36
2017-09-22T13:59:26.181Z,28.24
2017-09-22T13:59:39.198Z,28.24
2017-09-22T13:59:52.109Z,28.3
2017-09-22T14:00:05.062Z,28.3
2017-09-22T14:00:18.032Z,28.26
2017-09-22T14:00:31.614Z,28.23
2017-09-22T14:00:44.086Z,28.24
2017-09-22T14:00:57.873Z,28.23
2017-09-22T14:01:10.929Z,28.21
2017-09-22T14:01:24.443Z,28.17
2017-09-22T14:01:37.966Z,28.24
2017-09-22T14:01:51.500Z,28.26
2017-09-22T14:02:03.436Z,28.26
2017-09-22T14:02:16.535Z,28.3
2017-09-22T14:02:30.099Z,28.36
2017-09-22T14:02:43.702Z,28.23
2017-09-22T14:02:57.238Z,28.28
2017-09-22T14:03:09.157Z,28.36
2017-09-22T14:03:22.217Z,28.28
2017-09-22T14:03:35.703Z,28.38
2017-09-22T14:03:47.580Z,28.42
2017-09-22T14:04:00.044Z,28.35
2017-09-22T14:04:13.083Z,28.35
2017-09-22T14:04:26.055Z,28.41
2017-09-22T14:04:39.000Z,28.39
2017-09-22T14:04:51.919Z,28.39
2017-09-22T14:05:04.945Z,28.39
2017-09-22T14:05:18.429Z,28.38
2017-09-22T14:05:32.017Z,28.38
2017-09-22T14:05:43.952Z,28.42
2017-09-22T14:05:57.469Z,28.42
2017-09-22T14:06:10.482Z,28.35
2017-09-22T14:06:24.053Z,28.35
2017-09-22T14:06:37.061Z,28.48
2017-09-22T14:06:48.432Z,28.42
2017-09-22T14:07:00.897Z,28.41
2017-09-22T14:07:15.008Z,28.45
2017-09-22T14:07:28.486Z,28.49
2017-09-22T14:07:41.432Z,28.46
2017-09-22T14:07:54.484Z,28.49
2017-09-22T14:08:06.999Z,28.48
2017-09-22T14:08:19.495Z,28.54
2017-09-22T14:08:32.467Z,28.51
2017-09-22T14:08:45.951Z,28.64
2017-09-22T14:08:59.048Z,28.53
2017-09-22T14:09:12.062Z,28.63
2017-09-22T14:09:25.573Z,28.6
2017-09-22T14:09:38.107Z,28.58
2017-09-22T14:09:51.581Z,28.61
2017-09-22T14:10:04.063Z,28.65
2017-09-22T14:10:16.527Z,28.67
2017-09-22T14:10:29.685Z,28.67
2017-09-22T14:10:42.692Z,28.67
2017-09-22T14:10:55.678Z,28.64
2017-09-22T14:11:08.177Z,28.63
2017-09-22T14:11:21.226Z,28.64
2017-09-22T14:11:34.768Z,28.67
2017-09-22T14:11:47.762Z,28.72
2017-09-22T14:12:00.771Z,28.63
2017-09-22T14:12:13.248Z,28.72
2017-09-22T14:12:26.844Z,28.72
2017-09-22T14:12:40.371Z,28.73
2017-09-22T14:12:53.494Z,28.76
2017-09-22T14:13:05.429Z,28.73
2017-09-22T14:13:18.421Z,28.75
2017-09-22T14:13:31.459Z,28.76
2017-09-22T14:13:45.046Z,28.76
2017-09-22T14:13:58.591Z,28.79
2017-09-22T14:14:12.330Z,28.68
2017-09-22T14:14:25.627Z,28.68
2017-09-22T14:14:39.226Z,28.64